createdAt,value
2023-02-18T00:02:13.453Z,6.20
2023-02-18T00:04:40.276Z,6.10
2023-02-18T00:07:07.127Z,6.00
2023-02-18T00:09:33.926Z,6.00
2023-02-18T00:12:00.742Z,6.00
2023-02-18T00:14:27.572Z,6.00
2023-02-18T00:16:54.430Z,6.00
2023-02-18T00:19:21.417Z,6.00
2023-02-18T00:21:48.239Z,5.90
2023-02-18T00:24:16.532Z,5.90
2023-02-18T00:26:43.906Z,5.90
2023-02-18T00:29:10.861Z,5.90
2023-02-18T00:31:39.455Z,6.00
2023-02-18T00:34:06.395Z,5.90
2023-02-18T00:36:34.709Z,5.90
2023-02-18T00:39:03.984Z,5.90
2023-02-18T00:41:31.266Z,5.90
2023-02-18T00:43:58.144Z,5.90
2023-02-18T00:46:25.608Z,5.80
2023-02-18T00:48:53.865Z,5.80
2023-02-18T00:51:21.267Z,5.80
2023-02-18T00:53:48.746Z,5.80
2023-02-18T00:56:15.569Z,5.70
2023-02-18T00:58:42.575Z,5.80
2023-02-18T01:01:09.947Z,5.80
2023-02-18T01:03:37.481Z,5.80
2023-02-18T01:06:04.780Z,5.70
2023-02-18T01:08:33.494Z,5.70
2023-02-18T01:11:00.600Z,5.70
2023-02-18T01:13:27.450Z,5.80
2023-02-18T01:15:54.396Z,5.80
2023-02-18T01:18:21.674Z,5.80
2023-02-18T01:20:48.809Z,5.80
2023-02-18T01:23:15.968Z,5.80
2023-02-18T01:25:42.878Z,5.80
2023-02-18T01:28:11.390Z,5.80
2023-02-18T01:30:38.448Z,5.80
2023-02-18T01:33:05.327Z,5.80
2023-02-18T01:35:32.357Z,5.80
2023-02-18T01:37:59.491Z,5.80
2023-02-18T01:40:27.354Z,5.80
2023-02-18T01:42:54.281Z,5.80
2023-02-18T01:45:47.389Z,5.90
2023-02-18T01:48:17.295Z,5.80
2023-02-18T01:50:46.042Z,5.80
2023-02-18T01:53:18.624Z,5.80
2023-02-18T01:55:46.487Z,5.80
2023-02-18T01:58:14.000Z,5.80
2023-02-18T02:00:41.494Z,5.80
2023-02-18T02:03:08.772Z,5.80
2023-02-18T02:05:36.185Z,5.80
2023-02-18T02:08:04.845Z,5.80
2023-02-18T02:10:52.062Z,5.80
2023-02-18T02:13:38.301Z,5.80
2023-02-18T02:16:31.879Z,5.80
2023-02-18T02:19:07.831Z,5.90
2023-02-18T02:21:44.262Z,5.90
2023-02-18T02:24:18.873Z,5.80
2023-02-18T02:26:49.253Z,5.80
2023-02-18T02:29:16.599Z,5.90
2023-02-18T02:31:59.206Z,5.80
2023-02-18T02:34:29.703Z,5.80
2023-02-18T02:37:03.376Z,5.70
2023-02-18T02:39:30.743Z,5.80
2023-02-18T02:42:05.991Z,5.80
2023-02-18T02:44:40.297Z,5.80
2023-02-18T02:47:26.012Z,5.80
2023-02-18T02:50:05.992Z,5.80
2023-02-18T02:52:36.564Z,5.80
2023-02-18T02:55:10.956Z,5.80
2023-02-18T02:57:48.538Z,5.80
2023-02-18T03:00:27.397Z,5.80
2023-02-18T03:02:55.892Z,5.80
2023-02-18T03:05:42.310Z,5.80
2023-02-18T03:08:09.416Z,5.80
2023-02-18T03:10:40.818Z,5.80
2023-02-18T03:13:13.175Z,5.80
2023-02-18T03:16:02.069Z,5.80
2023-02-18T03:18:30.612Z,5.80
2023-02-18T03:21:00.420Z,5.80
2023-02-18T03:23:29.441Z,5.90
2023-02-18T03:25:57.718Z,5.90
2023-02-18T03:28:29.296Z,5.90
2023-02-18T03:30:58.921Z,5.90
2023-02-18T03:33:29.099Z,6.00
2023-02-18T03:35:57.202Z,6.00
2023-02-18T03:38:50.815Z,5.90
2023-02-18T03:41:18.116Z,6.00
2023-02-18T03:43:53.441Z,6.00
2023-02-18T03:46:21.079Z,6.00
2023-02-18T03:48:48.461Z,6.00
2023-02-18T03:51:15.860Z,6.00
2023-02-18T03:53:43.351Z,6.10
2023-02-18T03:56:12.643Z,6.00
2023-02-18T03:58:39.835Z,6.00
2023-02-18T04:01:07.224Z,6.00
2023-02-18T04:03:34.695Z,6.10
2023-02-18T04:06:01.942Z,6.10
2023-02-18T04:08:29.377Z,6.10
2023-02-18T04:10:56.625Z,6.20
2023-02-18T04:13:24.204Z,6.20
2023-02-18T04:15:51.826Z,6.10
2023-02-18T04:18:20.453Z,6.10
2023-02-18T04:20:47.969Z,5.90
2023-02-18T04:23:16.074Z,6.00
2023-02-18T04:25:43.312Z,6.00
2023-02-18T04:28:13.539Z,6.10
2023-02-18T04:30:40.854Z,6.10
2023-02-18T04:33:08.200Z,6.10
2023-02-18T04:35:36.914Z,6.10
2023-02-18T04:38:04.300Z,6.10
2023-02-18T04:40:31.585Z,6.20
2023-02-18T04:42:58.980Z,6.20
2023-02-18T04:45:26.734Z,6.10
2023-02-18T04:47:54.398Z,6.20
2023-02-18T04:50:22.142Z,6.20
2023-02-18T04:52:49.636Z,6.20
2023-02-18T04:55:16.929Z,6.20
2023-02-18T04:57:44.308Z,6.20
2023-02-18T05:00:14.237Z,6.30
2023-02-18T05:02:41.640Z,6.30
2023-02-18T05:05:08.994Z,6.30
2023-02-18T05:07:36.684Z,6.30
2023-02-18T05:10:04.452Z,6.30
2023-02-18T05:12:31.720Z,6.30
2023-02-18T05:14:58.886Z,6.20
2023-02-18T05:17:26.195Z,6.30
2023-02-18T05:19:53.393Z,6.20
2023-02-18T05:22:20.941Z,6.30
2023-02-18T05:24:48.181Z,6.30
2023-02-18T05:27:15.801Z,6.30
2023-02-18T05:29:43.218Z,6.30
2023-02-18T05:32:10.529Z,6.30
2023-02-18T05:35:04.454Z,6.40
2023-02-18T05:37:31.913Z,6.40
2023-02-18T05:39:59.480Z,6.40
2023-02-18T05:42:26.700Z,6.40
2023-02-18T05:44:53.940Z,6.40
2023-02-18T05:47:21.353Z,6.40
2023-02-18T05:49:48.630Z,6.30
2023-02-18T05:52:15.819Z,6.30
2023-02-18T05:54:43.244Z,6.30
2023-02-18T05:57:11.055Z,6.30
2023-02-18T05:59:38.298Z,6.40
2023-02-18T06:02:05.661Z,6.30
2023-02-18T06:04:32.928Z,6.30
2023-02-18T06:07:00.283Z,6.20
2023-02-18T06:09:27.534Z,6.30
2023-02-18T06:11:54.892Z,6.20
2023-02-18T06:14:22.085Z,6.20
2023-02-18T06:16:49.536Z,6.20
2023-02-18T06:19:17.273Z,6.20
2023-02-18T06:21:44.694Z,6.20
2023-02-18T06:24:11.908Z,6.10
2023-02-18T06:26:40.314Z,6.20
2023-02-18T06:29:07.506Z,6.20
2023-02-18T06:31:35.053Z,6.10
2023-02-18T06:34:02.361Z,6.10
2023-02-18T06:36:29.721Z,6.10
2023-02-18T06:38:57.763Z,6.00
2023-02-18T06:41:25.643Z,6.00
2023-02-18T06:43:53.057Z,6.10
2023-02-18T06:46:20.435Z,6.10
2023-02-18T06:48:47.941Z,6.10
2023-02-18T06:51:16.421Z,6.10
2023-02-18T06:53:44.112Z,6.20
2023-02-18T06:56:11.825Z,6.20
2023-02-18T06:58:39.109Z,6.20
2023-02-18T07:01:06.461Z,6.30
2023-02-18T07:03:33.806Z,6.40
2023-02-18T07:06:01.361Z,6.40
2023-02-18T07:08:30.551Z,6.40
2023-02-18T07:10:57.865Z,6.50
2023-02-18T07:13:25.121Z,6.50
2023-02-18T07:15:52.341Z,6.50
2023-02-18T07:18:19.759Z,6.60
2023-02-18T07:20:47.105Z,6.70
2023-02-18T07:23:14.536Z,6.70
2023-02-18T07:25:41.912Z,6.80
2023-02-18T07:28:09.581Z,6.80
2023-02-18T07:30:36.824Z,6.90
2023-02-18T07:33:04.177Z,7.00
2023-02-18T07:35:31.576Z,7.10
2023-02-18T07:37:58.816Z,7.20
2023-02-18T07:40:26.146Z,7.20
2023-02-18T07:42:53.307Z,7.30
2023-02-18T07:45:20.748Z,7.40
2023-02-18T07:47:47.974Z,7.40
2023-02-18T07:50:15.298Z,7.60
2023-02-18T07:52:42.560Z,7.60
2023-02-18T07:55:10.087Z,7.70
2023-02-18T07:57:57.496Z,7.80
2023-02-18T08:00:25.168Z,7.90
2023-02-18T08:02:52.430Z,7.90
2023-02-18T08:05:19.924Z,8.10
2023-02-18T08:07:47.136Z,8.20
2023-02-18T08:10:27.830Z,8.30
2023-02-18T08:12:55.254Z,8.40
2023-02-18T08:15:22.622Z,8.60
2023-02-18T08:17:49.896Z,8.80
2023-02-18T08:20:17.410Z,8.90
2023-02-18T08:22:44.833Z,8.80
2023-02-18T08:25:24.102Z,9.10
2023-02-18T08:27:56.173Z,9.20
2023-02-18T08:30:25.011Z,9.20
2023-02-18T08:32:52.940Z,9.40
2023-02-18T08:35:20.431Z,9.90
2023-02-18T08:37:53.758Z,10.30
2023-02-18T08:40:22.164Z,10.50
2023-02-18T08:42:49.863Z,10.80
2023-02-18T08:45:17.333Z,11.50
2023-02-18T08:48:16.699Z,12.40
2023-02-18T08:50:32.248Z,12.80
2023-02-18T08:53:03.841Z,13.00
2023-02-18T08:55:32.168Z,13.00
2023-02-18T08:58:00.044Z,13.00
2023-02-18T09:00:27.440Z,12.70
2023-02-18T09:02:54.876Z,12.90
2023-02-18T09:05:22.088Z,13.10
2023-02-18T09:07:49.352Z,13.00
2023-02-18T09:10:16.611Z,13.10
2023-02-18T09:12:44.038Z,13.00
2023-02-18T09:15:11.381Z,13.00
2023-02-18T09:17:38.708Z,13.10
2023-02-18T09:20:06.359Z,13.50
2023-02-18T09:22:33.733Z,14.10
2023-02-18T09:25:01.068Z,14.70
2023-02-18T09:27:28.401Z,16.10
2023-02-18T09:29:55.767Z,17.40
2023-02-18T09:32:34.243Z,16.10
2023-02-18T09:35:03.689Z,16.00
2023-02-18T09:37:31.193Z,16.90
2023-02-18T09:40:00.433Z,19.30
2023-02-18T09:42:33.830Z,19.90
2023-02-18T09:45:02.900Z,21.90
2023-02-18T09:47:33.118Z,22.90
2023-02-18T09:50:05.767Z,23.00
2023-02-18T09:52:34.977Z,25.30
2023-02-18T09:55:15.140Z,25.90
2023-02-18T09:57:44.735Z,27.30
2023-02-18T10:00:15.328Z,27.30
2023-02-18T10:02:49.383Z,27.90
2023-02-18T10:05:16.992Z,29.10
2023-02-18T10:07:44.927Z,29.80
2023-02-18T10:10:23.407Z,29.60
2023-02-18T10:12:51.880Z,29.10
2023-02-18T10:15:23.232Z,28.70
2023-02-18T10:17:51.338Z,29.00
2023-02-18T10:20:23.129Z,28.10
2023-02-18T10:22:51.231Z,28.10
2023-02-18T10:25:20.439Z,27.30
2023-02-18T10:27:48.942Z,28.90
2023-02-18T10:30:16.154Z,29.30
2023-02-18T10:32:44.705Z,30.10
2023-02-18T10:35:25.506Z,30.60
2023-02-18T10:37:57.628Z,32.30
2023-02-18T10:40:24.845Z,31.60
2023-02-18T10:43:08.459Z,30.20
2023-02-18T10:45:48.652Z,27.80
2023-02-18T10:48:34.984Z,30.50
2023-02-18T10:51:07.367Z,32.50
2023-02-18T10:53:41.858Z,32.50
2023-02-18T10:56:09.457Z,31.00
2023-02-18T10:58:42.590Z,30.50
2023-02-18T11:01:17.611Z,30.60
2023-02-18T11:03:46.854Z,30.30
2023-02-18T11:06:20.421Z,29.70
2023-02-18T11:08:48.230Z,30.50
2023-02-18T11:11:22.848Z,30.50
2023-02-18T11:13:54.934Z,30.90
2023-02-18T11:16:36.673Z,30.20
2023-02-18T11:19:04.734Z,29.90
2023-02-18T11:21:35.596Z,27.80
2023-02-18T11:24:21.133Z,26.50
2023-02-18T11:26:48.929Z,25.30
2023-02-18T11:29:27.095Z,24.30
2023-02-18T11:31:56.414Z,24.10
2023-02-18T11:34:27.036Z,23.50
2023-02-18T11:36:54.796Z,22.80
2023-02-18T11:39:27.072Z,22.10
2023-02-18T11:42:14.510Z,21.40
2023-02-18T11:44:43.559Z,20.70
2023-02-18T11:47:14.013Z,21.20
2023-02-18T11:49:42.523Z,21.30
2023-02-18T11:52:13.161Z,20.70
2023-02-18T11:54:40.470Z,20.40
2023-02-18T11:57:12.788Z,20.30
2023-02-18T11:59:40.601Z,20.40
2023-02-18T12:02:10.950Z,20.40
2023-02-18T12:04:38.571Z,20.60
2023-02-18T12:07:05.856Z,20.60
2023-02-18T12:09:33.131Z,20.50
2023-02-18T12:12:14.545Z,20.20
2023-02-18T12:14:41.788Z,20.40
2023-02-18T12:17:17.812Z,20.20
2023-02-18T12:20:06.857Z,19.70
2023-02-18T12:22:51.735Z,19.60
2023-02-18T12:25:38.580Z,19.20
2023-02-18T12:28:28.428Z,19.10
2023-02-18T12:30:58.981Z,19.00
2023-02-18T12:33:50.874Z,18.90
2023-02-18T12:36:30.001Z,18.60
2023-02-18T12:39:03.043Z,18.70
2023-02-18T12:41:43.037Z,18.80
2023-02-18T12:44:16.484Z,18.90
2023-02-18T12:46:51.424Z,19.10
2023-02-18T12:49:27.834Z,18.70
2023-02-18T12:52:02.455Z,18.60
2023-02-18T12:54:39.366Z,18.30
2023-02-18T12:57:15.109Z,18.00
2023-02-18T12:59:45.569Z,18.00
2023-02-18T13:02:31.072Z,18.10
2023-02-18T13:05:11.311Z,18.20
2023-02-18T13:07:57.442Z,18.30
2023-02-18T13:10:24.808Z,17.90
2023-02-18T13:12:55.473Z,17.90
2023-02-18T13:15:22.993Z,17.60
2023-02-18T13:17:51.824Z,17.70
2023-02-18T13:20:33.859Z,17.80
2023-02-18T13:23:02.109Z,17.90
2023-02-18T13:25:30.234Z,17.90
2023-02-18T13:28:10.200Z,17.90
2023-02-18T13:30:47.432Z,17.90
2023-02-18T13:33:23.943Z,17.80
2023-02-18T13:35:57.569Z,17.80
2023-02-18T13:38:37.601Z,17.80
2023-02-18T13:41:05.656Z,17.60
2023-02-18T13:43:34.661Z,17.60
2023-02-18T13:46:08.477Z,17.60
2023-02-18T13:48:39.788Z,17.40
2023-02-18T13:51:07.713Z,17.10
2023-02-18T13:53:40.088Z,17.30
2023-02-18T13:56:17.437Z,17.30
2023-02-18T13:58:50.739Z,17.30
2023-02-18T14:01:22.045Z,17.10
2023-02-18T14:03:59.502Z,16.90
2023-02-18T14:06:34.338Z,16.90
2023-02-18T14:09:25.057Z,16.70
2023-02-18T14:11:58.298Z,16.70
2023-02-18T14:14:25.689Z,16.70
2023-02-18T14:17:11.947Z,16.70
2023-02-18T14:19:39.903Z,16.70
2023-02-18T14:22:27.527Z,16.70
2023-02-18T14:25:04.035Z,16.60
2023-02-18T14:27:31.566Z,16.70
2023-02-18T14:30:04.993Z,16.60
2023-02-18T14:32:32.437Z,16.60
2023-02-18T14:35:03.555Z,16.40
2023-02-18T14:37:41.141Z,16.40
2023-02-18T14:40:15.300Z,16.40
2023-02-18T14:42:58.331Z,16.50
2023-02-18T14:45:32.174Z,16.50
2023-02-18T14:48:13.257Z,16.30
2023-02-18T14:50:43.740Z,16.30
2023-02-18T14:53:19.089Z,16.30
2023-02-18T14:55:48.000Z,16.30
2023-02-18T14:58:27.620Z,16.20
2023-02-18T15:00:55.232Z,16.20
2023-02-18T15:03:23.403Z,16.10
2023-02-18T15:05:51.659Z,16.10
2023-02-18T15:08:20.851Z,16.10
2023-02-18T15:11:01.998Z,15.90
2023-02-18T15:13:34.430Z,15.80
2023-02-18T15:16:07.192Z,15.80
2023-02-18T15:18:37.053Z,15.70
2023-02-18T15:21:09.687Z,15.70
2023-02-18T15:23:39.160Z,15.80
2023-02-18T15:26:06.923Z,15.80
2023-02-18T15:28:35.592Z,15.70
2023-02-18T15:31:04.308Z,15.60
2023-02-18T15:33:31.964Z,15.60
2023-02-18T15:36:05.899Z,15.50
2023-02-18T15:38:33.693Z,15.40
2023-02-18T15:41:02.489Z,15.30
2023-02-18T15:43:31.581Z,15.20
2023-02-18T15:45:59.339Z,15.00
2023-02-18T15:48:37.976Z,15.00
2023-02-18T15:51:16.894Z,14.80
2023-02-18T15:53:50.145Z,14.70
2023-02-18T15:56:31.628Z,14.60
2023-02-18T15:59:19.260Z,14.50
2023-02-18T16:01:52.029Z,14.30
2023-02-18T16:04:21.920Z,14.30
2023-02-18T16:06:51.492Z,14.30
2023-02-18T16:09:31.199Z,14.00
2023-02-18T16:12:03.412Z,13.80
2023-02-18T16:14:35.447Z,13.80
2023-02-18T16:17:12.716Z,13.60
2023-02-18T16:20:04.760Z,13.50
2023-02-18T16:22:39.442Z,13.40
2023-02-18T16:25:13.768Z,13.30
2023-02-18T16:27:50.241Z,13.10
2023-02-18T16:30:26.088Z,13.10
2023-02-18T16:32:55.146Z,12.80
2023-02-18T16:35:23.345Z,12.70
2023-02-18T16:37:51.906Z,12.70
2023-02-18T16:40:23.302Z,12.50
2023-02-18T16:42:52.793Z,12.30
2023-02-18T16:45:24.854Z,12.20
2023-02-18T16:47:52.635Z,12.20
2023-02-18T16:50:21.200Z,12.10
2023-02-18T16:52:50.059Z,12.10
2023-02-18T16:55:19.940Z,12.00
2023-02-18T16:57:48.451Z,11.80
2023-02-18T17:00:16.713Z,11.70
2023-02-18T17:02:46.046Z,11.60
2023-02-18T17:05:28.139Z,11.60
2023-02-18T17:07:57.296Z,11.40
2023-02-18T17:10:24.895Z,11.30
2023-02-18T17:12:52.539Z,11.10
2023-02-18T17:15:31.287Z,11.00
2023-02-18T17:18:00.971Z,11.00
2023-02-18T17:20:30.109Z,10.90
2023-02-18T17:22:58.825Z,10.90
2023-02-18T17:25:56.633Z,10.80
2023-02-18T17:28:24.662Z,10.60
2023-02-18T17:30:58.864Z,10.60
2023-02-18T17:33:27.294Z,10.40
2023-02-18T17:35:55.217Z,10.40
2023-02-18T17:38:23.324Z,10.30
2023-02-18T17:40:51.513Z,10.30
2023-02-18T17:43:19.342Z,10.20
2023-02-18T17:45:51.267Z,10.10
2023-02-18T17:48:19.420Z,9.90
2023-02-18T17:50:47.541Z,9.80
2023-02-18T17:53:16.229Z,9.80
2023-02-18T17:55:44.549Z,9.70
2023-02-18T17:58:13.584Z,9.70
2023-02-18T18:00:46.296Z,9.60
2023-02-18T18:03:14.953Z,9.40
2023-02-18T18:05:44.604Z,9.40
2023-02-18T18:08:14.727Z,9.40
2023-02-18T18:10:48.929Z,9.30
2023-02-18T18:13:22.931Z,9.20
2023-02-18T18:15:51.919Z,9.20
2023-02-18T18:18:20.153Z,9.00
2023-02-18T18:20:50.797Z,8.90
2023-02-18T18:23:19.170Z,8.80
2023-02-18T18:25:49.069Z,8.80
2023-02-18T18:28:16.789Z,8.80
2023-02-18T18:30:46.200Z,9.00
2023-02-18T18:33:26.199Z,8.90
2023-02-18T18:35:55.105Z,8.70
2023-02-18T18:38:24.199Z,8.50
2023-02-18T18:40:53.444Z,8.50
2023-02-18T18:43:25.980Z,8.50
2023-02-18T18:45:54.837Z,8.50
2023-02-18T18:48:23.277Z,8.40
2023-02-18T18:50:53.141Z,8.30
2023-02-18T18:53:21.392Z,8.30
2023-02-18T18:55:50.101Z,8.30
2023-02-18T18:58:21.486Z,8.30
2023-02-18T19:00:53.479Z,8.20
2023-02-18T19:03:22.553Z,8.10
2023-02-18T19:05:50.919Z,8.10
2023-02-18T19:08:22.128Z,8.00
2023-02-18T19:10:51.507Z,8.00
2023-02-18T19:13:21.080Z,8.00
2023-02-18T19:15:50.038Z,7.80
2023-02-18T19:18:22.400Z,7.70
2023-02-18T19:20:51.146Z,7.60
2023-02-18T19:23:21.361Z,7.60
2023-02-18T19:25:50.929Z,7.70
2023-02-18T19:28:20.788Z,7.70
2023-02-18T19:30:50.467Z,7.60
2023-02-18T19:33:18.532Z,7.50
2023-02-18T19:35:47.616Z,7.50
2023-02-18T19:38:19.821Z,7.40
2023-02-18T19:40:47.757Z,7.30
2023-02-18T19:43:16.113Z,7.20
2023-02-18T19:45:45.224Z,7.20
2023-02-18T19:48:14.014Z,7.30
2023-02-18T19:50:42.836Z,7.30
2023-02-18T19:53:11.294Z,7.30
2023-02-18T19:55:39.534Z,7.30
2023-02-18T19:58:07.898Z,7.20
2023-02-18T20:00:36.450Z,7.20
2023-02-18T20:03:04.539Z,7.20
2023-02-18T20:05:37.172Z,7.10
2023-02-18T20:08:04.894Z,7.00
2023-02-18T20:10:32.837Z,6.90
2023-02-18T20:13:00.725Z,6.90
2023-02-18T20:15:28.818Z,6.90
2023-02-18T20:17:56.526Z,6.90
2023-02-18T20:20:25.501Z,6.90
2023-02-18T20:22:53.050Z,6.90
2023-02-18T20:25:21.187Z,6.70
2023-02-18T20:28:00.426Z,6.80
2023-02-18T20:30:30.978Z,6.70
2023-02-18T20:33:02.402Z,6.60
2023-02-18T20:35:30.344Z,6.70
2023-02-18T20:37:59.331Z,6.70
2023-02-18T20:40:29.099Z,6.70
2023-02-18T20:42:56.962Z,6.70
2023-02-18T20:45:25.172Z,6.70
2023-02-18T20:47:53.166Z,6.70
2023-02-18T20:50:22.516Z,6.70
2023-02-18T20:52:50.714Z,6.60
2023-02-18T20:55:19.045Z,6.60
2023-02-18T20:57:48.387Z,6.50
2023-02-18T21:00:16.629Z,6.60
2023-02-18T21:02:44.711Z,6.50
2023-02-18T21:05:12.206Z,6.40
2023-02-18T21:07:41.406Z,6.40
2023-02-18T21:10:10.801Z,6.40
2023-02-18T21:12:40.449Z,6.50
2023-02-18T21:15:08.148Z,6.50
2023-02-18T21:17:35.612Z,6.50
2023-02-18T21:20:05.454Z,6.50
2023-02-18T21:22:34.392Z,6.50
2023-02-18T21:25:05.601Z,6.50
2023-02-18T21:27:33.548Z,6.40
2023-02-18T21:30:01.579Z,6.40
2023-02-18T21:32:29.207Z,6.40
2023-02-18T21:34:56.936Z,6.40
2023-02-18T21:37:24.413Z,6.50
2023-02-18T21:39:51.901Z,6.40
2023-02-18T21:42:19.515Z,6.30
2023-02-18T21:44:47.616Z,6.30
2023-02-18T21:47:15.126Z,6.30
2023-02-18T21:49:43.944Z,6.10
2023-02-18T21:52:11.886Z,6.10
2023-02-18T21:54:42.621Z,6.20
2023-02-18T21:57:14.857Z,6.20
2023-02-18T21:59:45.801Z,6.30
2023-02-18T22:02:17.841Z,6.30
2023-02-18T22:04:46.261Z,6.30
2023-02-18T22:07:13.924Z,6.20
2023-02-18T22:09:43.444Z,5.90
2023-02-18T22:12:11.958Z,6.00
2023-02-18T22:14:41.805Z,6.00
2023-02-18T22:17:09.517Z,6.10
2023-02-18T22:19:36.903Z,6.10
2023-02-18T22:22:04.521Z,6.10
2023-02-18T22:24:33.854Z,6.00
2023-02-18T22:27:01.684Z,6.00
2023-02-18T22:29:31.765Z,6.00
2023-02-18T22:31:59.039Z,5.90
2023-02-18T22:34:26.319Z,5.90
2023-02-18T22:36:53.641Z,5.90
2023-02-18T22:39:22.097Z,5.90
2023-02-18T22:41:49.190Z,5.90
2023-02-18T22:44:21.068Z,5.90
2023-02-18T22:46:48.147Z,5.80
2023-02-18T22:49:16.364Z,5.80
2023-02-18T22:51:44.101Z,5.80
2023-02-18T22:54:16.332Z,5.70
2023-02-18T22:56:43.512Z,5.70
2023-02-18T22:59:11.428Z,5.70
2023-02-18T23:01:40.865Z,5.70
2023-02-18T23:04:09.331Z,5.70
2023-02-18T23:06:39.339Z,5.70
2023-02-18T23:09:07.383Z,5.60
2023-02-18T23:11:38.185Z,5.60
2023-02-18T23:14:24.268Z,5.60
2023-02-18T23:17:15.085Z,5.60
2023-02-18T23:19:46.514Z,5.70
2023-02-18T23:22:14.920Z,5.70
2023-02-18T23:24:42.719Z,5.70
2023-02-18T23:27:10.934Z,5.60
2023-02-18T23:29:38.527Z,5.60
2023-02-18T23:32:05.806Z,5.60
2023-02-18T23:34:33.310Z,5.60
2023-02-18T23:37:00.497Z,5.60
2023-02-18T23:39:28.026Z,5.60
2023-02-18T23:41:55.111Z,5.60
2023-02-18T23:44:23.209Z,5.70
2023-02-18T23:46:50.870Z,5.60
2023-02-18T23:49:19.377Z,5.70
2023-02-18T23:51:46.625Z,5.60
2023-02-18T23:54:13.749Z,5.60
2023-02-18T23:56:40.906Z,5.50
2023-02-18T23:59:08.114Z,5.50
